Time;durP1;ratioP1;P1;durP2;ratioP2;P2;SDS_P1;SDS_P2;PMS_P1;PMS_P2;Temp;Humidity;BMP_temperature;BMP_pressure;BME280_temperature;BME280_humidity;BME280_pressure;Samples;Min_cycle;Max_cycle;Signal;HPM_P1;HPM_P2
2022/03/19 00:00:24;;;;;;;36.03;29.40;;;24.30;99.90;;;;;;1951077;73;21579;-87
2022/03/19 00:02:55;;;;;;;36.90;29.55;;;24.30;99.90;;;;;;1953835;73;21091;-86
2022/03/19 00:05:26;;;;;;;34.88;27.07;;;24.30;99.90;;;;;;1913708;73;21824;-86
2022/03/19 00:07:57;;;;;;;36.48;29.60;;;24.30;99.90;;;;;;1954987;72;21599;-87
2022/03/19 00:10:28;;;;;;;31.68;27.58;;;24.20;99.90;;;;;;1947504;73;21088;-88
2022/03/19 00:13:01;;;;;;;37.00;29.18;;;24.20;99.90;;;;;;1905950;74;21152;-87
2022/03/19 00:15:34;;;;;;;38.65;28.70;;;24.20;99.90;;;;;;1909085;73;21163;-87
2022/03/19 00:18:06;;;;;;;41.85;29.98;;;24.20;99.90;;;;;;1903644;74;21226;-87
2022/03/19 00:20:39;;;;;;;38.75;28.67;;;24.30;99.90;;;;;;1850456;75;21163;-87
2022/03/19 00:23:10;;;;;;;38.92;28.90;;;24.30;99.90;;;;;;1904875;74;21253;-86
2022/03/19 00:25:41;;;;;;;36.15;28.75;;;24.30;99.90;;;;;;1961913;72;21182;-86
2022/03/19 00:28:15;;;;;;;38.08;29.63;;;24.30;99.90;;;;;;1921165;74;21205;-88
2022/03/19 00:30:47;;;;;;;36.28;27.55;;;24.30;99.90;;;;;;1953466;73;21111;-86
2022/03/19 00:33:18;;;;;;;34.48;27.52;;;24.40;99.90;;;;;;1950902;73;21068;-86
2022/03/19 00:35:49;;;;;;;37.35;28.17;;;24.30;99.90;;;;;;1917188;74;21156;-87
2022/03/19 00:38:20;;;;;;;32.20;26.23;;;24.30;99.90;;;;;;1947639;73;21559;-87
2022/03/19 00:40:51;;;;;;;34.30;27.02;;;24.30;99.90;;;;;;1940339;73;21180;-87
2022/03/19 00:43:23;;;;;;;35.95;25.85;;;24.40;99.90;;;;;;1953392;73;21115;-86
2022/03/19 00:45:53;;;;;;;38.17;28.17;;;24.40;99.90;;;;;;1894304;73;21124;-87
2022/03/19 00:48:24;;;;;;;34.95;25.85;;;24.40;99.90;;;;;;1920846;74;21269;-86
2022/03/19 00:50:55;;;;;;;33.13;25.40;;;24.50;99.90;;;;;;1916446;74;21189;-86
2022/03/19 00:53:26;;;;;;;32.83;26.02;;;24.50;99.90;;;;;;1916377;74;21095;-86
2022/03/19 00:55:57;;;;;;;35.63;26.12;;;24.50;99.90;;;;;;1911208;74;21115;-86
2022/03/19 00:58:32;;;;;;;32.93;25.50;;;24.50;99.90;;;;;;1948140;72;21159;-88
2022/03/19 01:01:04;;;;;;;35.50;26.37;;;24.50;99.90;;;;;;1899854;74;21136;-88
2022/03/19 01:03:35;;;;;;;32.75;26.23;;;24.50;99.90;;;;;;1869558;75;21175;-88
2022/03/19 01:06:06;;;;;;;28.87;23.38;;;24.50;99.90;;;;;;1942292;72;21185;-89
2022/03/19 01:08:36;;;;;;;27.58;21.93;;;24.50;99.90;;;;;;1950606;73;21067;-87
2022/03/19 01:11:08;;;;;;;27.27;21.42;;;24.50;99.90;;;;;;1951910;73;21162;-86
2022/03/19 01:13:39;;;;;;;23.85;20.12;;;24.60;99.90;;;;;;1949295;73;21182;-87
2022/03/19 01:16:10;;;;;;;28.52;21.30;;;24.60;99.90;;;;;;1910807;73;21197;-87
2022/03/19 01:18:41;;;;;;;30.20;23.10;;;24.60;99.90;;;;;;1929644;73;21123;-87
2022/03/19 01:21:12;;;;;;;32.05;24.82;;;24.80;99.90;;;;;;1954880;72;21155;-87
2022/03/19 01:23:44;;;;;;;29.87;24.02;;;24.80;99.90;;;;;;1917998;73;21256;-87
2022/03/19 01:26:16;;;;;;;30.97;24.67;;;24.80;99.90;;;;;;1901829;73;21156;-86
2022/03/19 01:28:47;;;;;;;32.08;23.10;;;24.80;99.90;;;;;;1915712;73;21130;-73
2022/03/19 01:31:21;;;;;;;28.25;22.82;;;24.80;99.90;;;;;;1884328;74;21686;-73
2022/03/19 01:33:52;;;;;;;33.33;23.80;;;24.90;99.90;;;;;;1920653;73;21636;-73
2022/03/19 01:36:40;;;;;;;26.75;21.15;;;25.00;99.90;;;;;;1914979;73;21167;-73
2022/03/19 01:39:11;;;;;;;26.68;21.12;;;25.00;99.90;;;;;;1901286;74;21560;-73
2022/03/19 01:41:44;;;;;;;27.73;20.60;;;25.00;99.90;;;;;;1901840;73;21129;-73
2022/03/19 01:44:18;;;;;;;23.70;19.30;;;25.00;99.90;;;;;;1914867;73;21649;-73
2022/03/19 01:46:51;;;;;;;23.52;18.00;;;25.00;99.90;;;;;;1875929;75;21186;-72
2022/03/19 01:49:22;;;;;;;21.02;17.85;;;25.10;99.90;;;;;;1948435;72;21123;-72
2022/03/19 01:51:54;;;;;;;24.60;19.30;;;25.20;99.90;;;;;;1902832;74;21120;-72
2022/03/19 01:54:27;;;;;;;24.50;19.87;;;25.30;99.90;;;;;;1955375;72;21260;-72
2022/03/19 01:57:00;;;;;;;26.17;17.27;;;25.40;99.90;;;;;;1911092;74;21187;-72
2022/03/19 01:59:34;;;;;;;19.40;17.27;;;25.50;99.90;;;;;;1875591;75;21678;-72
2022/03/19 02:02:07;;;;;;;21.42;16.82;;;25.50;99.90;;;;;;1897871;73;21624;-72
2022/03/19 02:04:39;;;;;;;18.17;15.83;;;25.50;99.90;;;;;;1917501;73;21167;-73
2022/03/19 02:07:12;;;;;;;19.07;16.17;;;25.60;99.90;;;;;;1956257;72;21470;-72
2022/03/19 02:09:43;;;;;;;21.10;16.82;;;25.60;99.90;;;;;;1943397;73;21096;-73
2022/03/19 02:12:14;;;;;;;19.48;15.75;;;25.70;99.90;;;;;;1943303;72;21091;-72
2022/03/19 02:14:47;;;;;;;18.12;15.23;;;25.80;99.90;;;;;;1944898;72;21464;-72
2022/03/19 02:17:18;;;;;;;17.77;14.35;;;25.80;99.90;;;;;;1945527;72;21139;-72
2022/03/19 02:19:51;;;;;;;17.87;14.45;;;25.90;99.90;;;;;;1922377;73;21149;-72
2022/03/19 02:22:24;;;;;;;19.65;15.00;;;26.00;99.90;;;;;;1917777;73;21669;-73
2022/03/19 02:27:29;;;;;;;18.73;14.58;;;26.10;99.20;;;;;;1952799;73;21174;-73
2022/03/19 02:30:00;;;;;;;17.80;12.58;;;26.10;98.60;;;;;;1905051;74;21116;-73
2022/03/19 02:32:31;;;;;;;17.02;12.23;;;26.10;97.90;;;;;;1920874;73;21578;-74
2022/03/19 02:35:03;;;;;;;14.98;13.13;;;26.20;97.50;;;;;;1953708;72;21283;-72
2022/03/19 02:37:36;;;;;;;16.42;13.45;;;26.20;97.80;;;;;;1914400;73;21095;-72
2022/03/19 02:40:10;;;;;;;16.90;13.03;;;26.20;98.20;;;;;;1921818;73;21212;-73
2022/03/19 02:42:42;;;;;;;15.35;13.70;;;26.30;98.40;;;;;;1947441;73;21055;-73
2022/03/19 02:45:13;;;;;;;17.35;13.95;;;26.40;98.30;;;;;;1933075;73;21145;-73
2022/03/19 02:50:16;;;;;;;16.52;13.50;;;26.60;98.00;;;;;;1904343;73;21263;-73
2022/03/19 02:52:47;;;;;;;15.95;13.43;;;26.80;97.30;;;;;;1951470;72;21096;-73
2022/03/19 02:55:18;;;;;;;16.50;13.78;;;26.90;97.00;;;;;;1931201;72;21685;-73
2022/03/19 02:57:49;;;;;;;16.55;12.60;;;27.00;97.10;;;;;;1946499;72;21192;-73
2022/03/19 03:00:22;;;;;;;16.23;11.90;;;27.10;96.70;;;;;;1930702;73;21216;-74
2022/03/19 03:02:53;;;;;;;16.70;12.07;;;27.20;96.60;;;;;;1924877;73;21536;-73
2022/03/19 03:05:24;;;;;;;15.00;11.55;;;27.30;96.10;;;;;;1960976;72;21531;-74
2022/03/19 03:07:55;;;;;;;12.73;11.30;;;27.40;95.60;;;;;;1948975;72;21099;-74
2022/03/19 03:10:27;;;;;;;13.53;12.10;;;27.50;95.50;;;;;;1910115;74;21245;-73
2022/03/19 03:12:59;;;;;;;14.50;11.97;;;27.60;94.90;;;;;;1880609;75;21151;-73
2022/03/19 03:15:30;;;;;;;14.03;11.35;;;27.70;94.80;;;;;;1929636;73;21115;-73
2022/03/19 03:18:01;;;;;;;14.90;11.35;;;27.80;93.90;;;;;;1935832;73;21111;-72
2022/03/19 03:20:34;;;;;;;13.72;11.28;;;28.00;92.90;;;;;;1912130;74;21170;-73
2022/03/19 03:23:05;;;;;;;13.08;10.60;;;28.00;93.10;;;;;;1870298;75;21251;-73
2022/03/19 03:25:36;;;;;;;15.35;11.83;;;28.20;92.60;;;;;;1952236;73;21096;-72
2022/03/19 03:28:07;;;;;;;12.58;10.68;;;28.40;93.00;;;;;;1971863;72;21209;-72
2022/03/19 03:30:37;;;;;;;12.98;11.43;;;28.50;92.90;;;;;;1955846;73;21124;-73
2022/03/19 03:33:08;;;;;;;13.00;10.88;;;28.70;93.00;;;;;;1943885;73;21099;-73
2022/03/19 03:35:39;;;;;;;14.25;11.33;;;28.80;92.50;;;;;;1912311;74;21178;-71
2022/03/19 03:38:10;;;;;;;15.30;12.50;;;28.90;92.80;;;;;;1943035;73;21150;-70
2022/03/19 03:40:44;;;;;;;18.65;13.78;;;28.90;92.10;;;;;;1935836;73;21100;-70
2022/03/19 03:43:14;;;;;;;16.32;13.90;;;28.90;91.80;;;;;;1914937;73;21183;-70
2022/03/19 03:45:45;;;;;;;16.10;12.50;;;29.00;91.90;;;;;;1948222;73;21048;-70
2022/03/19 03:48:15;;;;;;;16.05;12.85;;;28.90;92.10;;;;;;1912582;74;21131;-70
2022/03/19 03:50:49;;;;;;;16.73;12.25;;;29.00;92.30;;;;;;1952280;73;21191;-70
2022/03/19 03:53:23;;;;;;;18.62;13.03;;;29.00;91.60;;;;;;1936648;73;21170;-70
2022/03/19 03:55:55;;;;;;;14.93;12.45;;;29.10;91.80;;;;;;1938762;73;21587;-70
2022/03/19 03:58:26;;;;;;;16.90;12.78;;;29.10;91.40;;;;;;1953085;73;21587;-69
2022/03/19 04:00:57;;;;;;;17.02;13.10;;;29.10;91.80;;;;;;1957388;73;21106;-70
2022/03/19 04:03:29;;;;;;;16.37;13.20;;;29.20;92.30;;;;;;1882451;75;21133;-70
2022/03/19 04:05:59;;;;;;;19.50;13.62;;;29.20;92.20;;;;;;1882099;73;21732;-70
2022/03/19 04:08:32;;;;;;;15.43;13.53;;;29.20;91.40;;;;;;1906819;74;21160;-70
2022/03/19 04:11:04;;;;;;;16.55;13.53;;;29.20;91.20;;;;;;1877146;76;21750;-71
2022/03/19 04:13:36;;;;;;;15.70;12.85;;;29.10;91.60;;;;;;1869393;75;21130;-71
2022/03/19 04:16:07;;;;;;;15.48;12.58;;;29.10;91.30;;;;;;1942983;73;21159;-71
2022/03/19 04:18:38;;;;;;;16.00;12.73;;;29.10;91.20;;;;;;1953530;73;21519;-70
2022/03/19 04:21:09;;;;;;;14.63;12.75;;;29.10;91.40;;;;;;1912032;73;21494;-70
2022/03/19 04:23:40;;;;;;;14.00;12.05;;;29.10;91.50;;;;;;1940269;72;21091;-70
2022/03/19 04:26:19;;;;;;;17.30;13.70;;;29.10;91.40;;;;;;1907196;74;21192;-70
2022/03/19 04:28:51;;;;;;;17.20;14.45;;;29.10;91.10;;;;;;1881579;75;21152;-70
2022/03/19 04:31:22;;;;;;;20.65;14.53;;;29.10;90.90;;;;;;1916165;72;21529;-70
2022/03/19 04:33:53;;;;;;;16.75;14.75;;;29.10;90.80;;;;;;1945748;73;21075;-69
2022/03/19 04:36:43;;;;;;;15.25;13.65;;;29.20;90.80;;;;;;1917004;74;21163;-69
2022/03/19 04:39:14;;;;;;;18.75;15.20;;;29.20;90.90;;;;;;1910419;74;21975;-71
2022/03/19 04:41:44;;;;;;;17.12;14.10;;;29.20;91.00;;;;;;1894759;74;21120;-69
2022/03/19 04:44:22;;;;;;;15.65;14.00;;;29.20;90.80;;;;;;1868677;75;21178;-70
2022/03/19 04:46:53;;;;;;;16.10;14.23;;;29.20;91.00;;;;;;1880850;74;21618;-70
2022/03/19 04:49:24;;;;;;;18.25;13.90;;;29.30;90.50;;;;;;1919266;73;21680;-70
2022/03/19 04:51:55;;;;;;;14.73;13.13;;;29.30;90.40;;;;;;1878947;75;21163;-70
2022/03/19 04:54:26;;;;;;;17.07;14.58;;;29.40;90.50;;;;;;1902773;75;21103;-69
2022/03/19 04:56:57;;;;;;;15.05;13.45;;;29.40;90.20;;;;;;1880605;74;21080;-69
2022/03/19 04:59:28;;;;;;;16.05;13.45;;;29.50;90.20;;;;;;1906418;75;21155;-69
2022/03/19 05:01:59;;;;;;;17.45;12.33;;;29.50;90.20;;;;;;1884539;74;21257;-70
2022/03/19 05:04:30;;;;;;;17.10;15.30;;;29.50;89.70;;;;;;1905850;74;21396;-70
2022/03/19 05:07:02;;;;;;;17.73;14.20;;;29.60;89.50;;;;;;1960202;73;21193;-70
2022/03/19 05:12:09;;;;;;;17.52;14.93;;;29.50;89.70;;;;;;1957024;73;21091;-69
2022/03/19 05:14:40;;;;;;;17.80;12.88;;;29.60;89.40;;;;;;1913053;73;21177;-69
2022/03/19 05:17:11;;;;;;;17.55;15.75;;;29.50;89.40;;;;;;1952601;72;21100;-69
2022/03/19 05:19:42;;;;;;;13.88;12.25;;;29.50;90.20;;;;;;1916393;74;21043;-68
2022/03/19 05:22:16;;;;;;;16.42;14.70;;;29.50;89.10;;;;;;1960284;72;21151;-69
2022/03/19 05:24:48;;;;;;;16.12;12.93;;;29.50;89.60;;;;;;1914759;73;21575;-69
2022/03/19 05:27:19;;;;;;;14.25;11.88;;;29.50;89.10;;;;;;1897844;74;21276;-70
2022/03/19 05:29:50;;;;;;;16.70;12.33;;;29.60;89.50;;;;;;1922612;74;21558;-69
2022/03/19 05:32:22;;;;;;;15.50;11.33;;;29.60;88.40;;;;;;1949367;72;21179;-69
2022/03/19 05:34:55;;;;;;;13.72;11.93;;;29.60;88.10;;;;;;1947472;72;21135;-69
2022/03/19 05:37:26;;;;;;;14.03;11.65;;;29.60;87.40;;;;;;1892850;74;21508;-70
2022/03/19 05:39:57;;;;;;;12.82;11.53;;;29.70;87.70;;;;;;1899650;74;21080;-69
2022/03/19 05:42:29;;;;;;;13.90;11.83;;;29.80;87.20;;;;;;1900162;74;21151;-70
2022/03/19 05:45:00;;;;;;;13.65;11.70;;;29.90;87.10;;;;;;1914485;74;21258;-70
2022/03/19 05:47:31;;;;;;;13.48;12.03;;;30.00;87.10;;;;;;1945816;72;21171;-69
2022/03/19 05:50:02;;;;;;;12.68;10.93;;;30.00;86.30;;;;;;1902220;74;21143;-70
2022/03/19 05:52:33;;;;;;;13.03;11.73;;;30.00;85.50;;;;;;1963811;73;21181;-69
2022/03/19 05:55:05;;;;;;;15.53;12.20;;;30.10;85.60;;;;;;1957465;72;21154;-69
2022/03/19 05:57:36;;;;;;;13.58;12.23;;;30.10;85.50;;;;;;1955240;72;21138;-70
2022/03/19 06:00:09;;;;;;;13.43;10.90;;;30.20;84.80;;;;;;1963443;73;21107;-69
2022/03/19 06:02:44;;;;;;;13.43;11.85;;;30.10;84.60;;;;;;1954283;72;21634;-70
2022/03/19 06:05:16;;;;;;;13.95;11.53;;;30.10;84.60;;;;;;1952884;73;21183;-70
2022/03/19 06:07:47;;;;;;;11.63;10.43;;;30.00;85.40;;;;;;1891106;74;21143;-70
2022/03/19 06:10:18;;;;;;;13.03;11.30;;;30.00;85.20;;;;;;1898658;74;21260;-70
2022/03/19 06:12:49;;;;;;;12.50;10.65;;;30.00;85.50;;;;;;1903440;73;21135;-70
2022/03/19 06:15:21;;;;;;;15.15;11.22;;;30.10;84.90;;;;;;1922942;74;21131;-70
2022/03/19 06:17:52;;;;;;;12.20;10.88;;;30.30;85.00;;;;;;1914345;73;21116;-70
2022/03/19 06:20:23;;;;;;;12.93;11.53;;;30.40;84.30;;;;;;1941157;72;21027;-70
2022/03/19 06:22:54;;;;;;;44.67;14.40;;;30.50;83.40;;;;;;1945540;72;21138;-70
2022/03/19 06:25:25;;;;;;;19.00;11.78;;;30.60;84.60;;;;;;1916100;73;21138;-72
2022/03/19 06:27:56;;;;;;;36.77;13.95;;;30.60;83.50;;;;;;1947911;73;21205;-72
2022/03/19 06:30:27;;;;;;;20.27;12.05;;;30.70;83.20;;;;;;1952004;73;21223;-72
2022/03/19 06:32:58;;;;;;;13.58;11.93;;;30.70;85.30;;;;;;1906857;74;21122;-71
2022/03/19 06:38:04;;;;;;;13.95;11.60;;;30.70;84.00;;;;;;1899771;73;21626;-71
2022/03/19 06:40:37;;;;;;;13.93;12.25;;;30.70;84.10;;;;;;1945991;72;21095;-70
2022/03/19 06:43:08;;;;;;;14.15;12.65;;;30.60;83.70;;;;;;1942005;73;21476;-70
2022/03/19 06:45:40;;;;;;;13.93;12.15;;;30.60;83.70;;;;;;1902281;74;21163;-70
2022/03/19 06:48:11;;;;;;;16.02;11.95;;;30.50;82.70;;;;;;1940055;73;21756;-69
2022/03/19 06:50:42;;;;;;;14.20;12.70;;;30.40;83.40;;;;;;1901932;73;21115;-71
2022/03/19 06:53:13;;;;;;;14.10;12.18;;;30.40;83.20;;;;;;1881080;75;21179;-70
2022/03/19 06:55:44;;;;;;;13.62;11.55;;;30.30;83.10;;;;;;1914064;73;21225;-70
2022/03/19 06:58:15;;;;;;;14.23;12.73;;;30.30;83.40;;;;;;1906448;74;21236;-70
2022/03/19 07:00:47;;;;;;;13.85;12.43;;;30.20;84.40;;;;;;1862374;75;21704;-70
2022/03/19 07:03:18;;;;;;;16.12;12.73;;;30.20;83.70;;;;;;1868428;76;21155;-70
2022/03/19 07:05:49;;;;;;;15.43;13.05;;;30.20;84.10;;;;;;1887589;73;21162;-70
2022/03/19 07:08:21;;;;;;;15.28;12.40;;;30.10;85.60;;;;;;1951297;72;21673;-70
2022/03/19 07:10:52;;;;;;;17.73;13.00;;;30.10;85.00;;;;;;1942612;72;21096;-69
2022/03/19 07:13:23;;;;;;;16.07;12.58;;;30.10;84.90;;;;;;1913441;74;21172;-69
2022/03/19 07:15:54;;;;;;;15.60;12.47;;;30.10;85.10;;;;;;1872474;74;21276;-70
2022/03/19 07:18:25;;;;;;;14.43;12.63;;;30.10;85.00;;;;;;1918834;74;21161;-70
2022/03/19 07:20:56;;;;;;;15.55;13.25;;;30.00;85.00;;;;;;1916322;73;21669;-70
2022/03/19 07:23:27;;;;;;;15.40;13.43;;;30.00;85.80;;;;;;1898915;74;21210;-70
2022/03/19 07:25:59;;;;;;;14.95;13.25;;;30.00;85.40;;;;;;1913682;73;21163;-69
2022/03/19 07:28:33;;;;;;;14.35;12.85;;;30.00;85.50;;;;;;1944874;73;21103;-70
2022/03/19 07:31:04;;;;;;;14.23;12.82;;;30.00;85.10;;;;;;1934384;73;21073;-70
2022/03/19 07:33:35;;;;;;;16.02;12.15;;;30.00;85.00;;;;;;1940776;73;21122;-70
2022/03/19 07:36:07;;;;;;;16.15;14.00;;;30.00;85.30;;;;;;1939375;73;21630;-70
2022/03/19 07:38:37;;;;;;;15.03;13.40;;;30.00;85.00;;;;;;1953253;73;21094;-70
2022/03/19 07:43:41;;;;;;;19.65;12.80;;;30.10;84.80;;;;;;1953744;73;21708;-70
2022/03/19 07:46:12;;;;;;;15.93;12.23;;;30.20;85.20;;;;;;1950549;73;21149;-70
2022/03/19 07:48:43;;;;;;;14.43;12.93;;;30.20;85.30;;;;;;1953232;73;21200;-70
2022/03/19 07:51:15;;;;;;;14.43;12.82;;;30.30;84.70;;;;;;1917408;74;21149;-69
2022/03/19 07:53:47;;;;;;;15.85;12.50;;;30.30;84.90;;;;;;1879640;75;21154;-70
2022/03/19 07:56:18;;;;;;;13.68;11.85;;;30.30;85.00;;;;;;1937482;73;21140;-70
2022/03/19 07:58:51;;;;;;;18.42;12.03;;;30.30;85.30;;;;;;1927754;73;21723;-70
2022/03/19 08:01:22;;;;;;;16.15;13.20;;;30.20;84.50;;;;;;1927550;73;21760;-69
2022/03/19 08:03:53;;;;;;;15.13;13.15;;;30.20;84.60;;;;;;1946371;72;21139;-70
2022/03/19 08:06:25;;;;;;;13.95;12.30;;;30.20;84.60;;;;;;1919570;75;21833;-70
2022/03/19 08:08:57;;;;;;;13.55;12.18;;;30.20;84.80;;;;;;1950040;73;21052;-70
2022/03/19 08:11:31;;;;;;;14.63;12.20;;;30.20;85.50;;;;;;1961509;72;21717;-70
2022/03/19 08:14:01;;;;;;;13.65;12.25;;;30.20;84.60;;;;;;1905544;74;21088;-70
2022/03/19 08:16:34;;;;;;;13.22;11.83;;;30.20;84.50;;;;;;1931317;73;21226;-71
2022/03/19 08:19:12;;;;;;;14.13;12.35;;;30.20;85.60;;;;;;1942868;72;21128;-71
2022/03/19 08:21:46;;;;;;;14.50;13.00;;;30.20;85.00;;;;;;1946700;73;21127;-71
2022/03/19 08:24:15;;;;;;;14.78;12.75;;;30.20;85.00;;;;;;1901457;74;21213;-70
2022/03/19 08:26:46;;;;;;;14.33;12.78;;;30.20;84.50;;;;;;1896094;75;21540;-72
2022/03/19 08:29:18;;;;;;;13.90;12.28;;;30.20;86.70;;;;;;1876958;75;21705;-71
2022/03/19 08:31:49;;;;;;;15.25;12.15;;;30.20;85.20;;;;;;1948087;73;21099;-71
2022/03/19 08:34:21;;;;;;;13.40;12.00;;;30.10;85.60;;;;;;1915308;74;21148;-70
2022/03/19 08:36:52;;;;;;;14.87;13.13;;;30.10;84.40;;;;;;1901659;74;21144;-70
2022/03/19 08:41:57;;;;;;;15.03;12.50;;;30.10;85.10;;;;;;1919948;73;21630;-72
2022/03/19 08:44:28;;;;;;;14.30;12.80;;;30.10;85.30;;;;;;1923607;73;21127;-71
2022/03/19 08:46:59;;;;;;;14.68;13.03;;;30.10;84.30;;;;;;1939273;73;21170;-70
2022/03/19 08:49:30;;;;;;;14.60;13.13;;;30.10;84.80;;;;;;1929222;73;21093;-71
2022/03/19 08:52:02;;;;;;;14.53;13.03;;;30.10;84.20;;;;;;1923152;73;21612;-70
2022/03/19 08:54:33;;;;;;;14.20;12.58;;;30.10;84.50;;;;;;1917433;73;21160;-70
2022/03/19 08:57:04;;;;;;;13.40;12.00;;;30.00;84.60;;;;;;1885980;75;21140;-71
2022/03/19 08:59:34;;;;;;;15.43;13.62;;;30.00;84.40;;;;;;1911046;73;21634;-70
2022/03/19 09:02:06;;;;;;;17.02;13.65;;;30.00;84.60;;;;;;1953274;73;21158;-71
2022/03/19 09:04:39;;;;;;;15.98;12.60;;;30.00;84.60;;;;;;1912353;74;21135;-71
2022/03/19 09:07:10;;;;;;;16.82;13.72;;;30.00;84.70;;;;;;1952164;73;21484;-71
2022/03/19 09:09:42;;;;;;;24.47;12.35;;;30.00;84.80;;;;;;1953507;73;21115;-70
2022/03/19 09:12:14;;;;;;;12.53;11.20;;;30.00;84.00;;;;;;1908839;74;21204;-70
2022/03/19 09:14:45;;;;;;;13.13;11.68;;;30.00;82.90;;;;;;1896030;75;21143;-71
2022/03/19 09:17:16;;;;;;;15.15;12.28;;;30.00;81.90;;;;;;1960140;73;21116;-70
2022/03/19 09:19:48;;;;;;;13.62;12.18;;;30.00;82.20;;;;;;1946650;73;21161;-70
2022/03/19 09:22:20;;;;;;;13.55;11.90;;;30.00;83.00;;;;;;1924934;74;21065;-70
2022/03/19 09:24:50;;;;;;;14.18;12.70;;;30.00;83.70;;;;;;1875488;75;21158;-70
2022/03/19 09:27:22;;;;;;;13.93;11.50;;;30.00;82.90;;;;;;1902998;73;21613;-70
2022/03/19 09:29:53;;;;;;;13.75;11.33;;;30.00;81.90;;;;;;1919795;73;21202;-71
2022/03/19 09:32:24;;;;;;;12.80;11.40;;;30.00;82.20;;;;;;1909338;74;21638;-70
2022/03/19 09:34:56;;;;;;;14.00;12.25;;;30.00;81.90;;;;;;1891725;73;21563;-70
2022/03/19 09:37:27;;;;;;;18.20;12.37;;;30.00;83.30;;;;;;1914451;74;21167;-69
2022/03/19 09:39:59;;;;;;;16.02;12.15;;;29.90;83.60;;;;;;1880683;73;21430;-70
2022/03/19 09:42:32;;;;;;;14.23;11.48;;;29.90;83.10;;;;;;1913410;74;21048;-70
2022/03/19 09:45:03;;;;;;;13.53;12.05;;;29.90;83.60;;;;;;1922639;74;21152;-71
2022/03/19 09:47:36;;;;;;;12.95;10.53;;;29.90;82.70;;;;;;1917849;74;21111;-70
2022/03/19 09:50:08;;;;;;;12.90;11.60;;;30.00;82.90;;;;;;1955882;73;21127;-70
2022/03/19 09:52:40;;;;;;;13.65;11.85;;;29.90;82.60;;;;;;1957488;72;21111;-70
2022/03/19 09:55:14;;;;;;;13.68;11.65;;;29.90;82.00;;;;;;1915214;73;21158;-70
2022/03/19 09:57:45;;;;;;;15.30;11.60;;;30.00;81.90;;;;;;1916492;73;21177;-70
2022/03/19 10:00:16;;;;;;;15.45;11.60;;;30.00;81.10;;;;;;1919610;74;21151;-70
2022/03/19 10:03:07;;;;;;;13.53;12.13;;;29.90;81.00;;;;;;1958906;73;21162;-70
2022/03/19 10:10:46;;;;;;;15.23;12.10;;;29.90;81.20;;;;;;1775542;78;21134;-71
2022/03/19 10:13:19;;;;;;;14.38;12.88;;;29.90;81.40;;;;;;1828313;77;21662;-70
2022/03/19 10:15:50;;;;;;;13.32;11.55;;;29.90;81.40;;;;;;1834308;76;21240;-71
2022/03/19 10:18:24;;;;;;;14.18;11.53;;;29.90;81.80;;;;;;1804302;79;21182;-71
2022/03/19 10:20:55;;;;;;;14.15;12.45;;;29.90;81.70;;;;;;1805367;79;21590;-70
2022/03/19 10:23:29;;;;;;;13.62;11.97;;;30.00;81.20;;;;;;1857121;76;21216;-70
2022/03/19 10:26:01;;;;;;;14.40;11.73;;;29.90;80.60;;;;;;1842233;77;22125;-70
2022/03/19 10:28:52;;;;;;;13.05;11.65;;;29.90;80.20;;;;;;1821256;79;21681;-69
2022/03/19 10:31:25;;;;;;;13.45;11.97;;;29.90;80.50;;;;;;1874113;76;21710;-69
2022/03/19 10:33:57;;;;;;;15.03;13.15;;;29.90;81.80;;;;;;1857581;76;21708;-70
2022/03/19 10:36:31;;;;;;;13.85;12.03;;;29.90;83.20;;;;;;1874353;76;21138;-69
2022/03/19 10:39:04;;;;;;;15.03;12.15;;;29.90;84.00;;;;;;1863369;76;21166;-87
2022/03/19 10:41:37;;;;;;;17.90;12.93;;;29.90;84.40;;;;;;1890401;76;21155;-86
2022/03/19 10:44:10;;;;;;;16.17;12.55;;;29.90;84.30;;;;;;1859801;76;21209;-85
2022/03/19 10:46:44;;;;;;;16.20;12.90;;;29.80;84.00;;;;;;1858696;76;21169;-85
2022/03/19 10:49:18;;;;;;;13.88;12.47;;;29.80;83.90;;;;;;1866153;76;21123;-85
2022/03/19 10:51:51;;;;;;;14.75;12.47;;;29.80;83.40;;;;;;1881775;76;21139;-85
2022/03/19 10:54:22;;;;;;;17.23;12.43;;;29.80;83.90;;;;;;1858393;77;21603;-86
2022/03/19 10:56:54;;;;;;;13.83;12.35;;;29.80;83.80;;;;;;1859335;76;21209;-86
2022/03/19 10:59:27;;;;;;;14.00;12.50;;;29.70;84.00;;;;;;1858554;77;21174;-86
2022/03/19 11:01:59;;;;;;;17.82;14.47;;;29.70;84.40;;;;;;1889370;76;21179;-85
2022/03/19 11:04:32;;;;;;;20.10;16.07;;;29.70;84.60;;;;;;1888085;76;21127;-86
2022/03/19 11:07:05;;;;;;;15.78;13.72;;;29.70;85.60;;;;;;1877076;76;21154;-87
2022/03/19 11:09:40;;;;;;;18.60;14.38;;;29.70;87.00;;;;;;1880080;76;21150;-86
2022/03/19 11:12:12;;;;;;;16.87;14.10;;;29.60;87.60;;;;;;1877976;76;21103;-85
2022/03/19 11:14:44;;;;;;;17.85;14.75;;;29.60;88.10;;;;;;1858699;77;21146;-85
2022/03/19 11:17:24;;;;;;;18.30;15.08;;;29.60;88.50;;;;;;1858678;77;21186;-85
2022/03/19 11:19:52;;;;;;;18.50;15.38;;;29.60;88.70;;;;;;1861267;76;21131;-85
2022/03/19 11:22:23;;;;;;;16.90;13.78;;;29.50;88.90;;;;;;1875394;76;21171;-84
2022/03/19 11:24:57;;;;;;;16.90;12.85;;;29.50;89.30;;;;;;1858373;76;21154;-85
2022/03/19 11:27:30;;;;;;;17.52;14.58;;;29.40;89.00;;;;;;1858880;76;21153;-85
2022/03/19 11:30:03;;;;;;;17.20;14.10;;;29.40;88.80;;;;;;1860802;76;21244;-87
2022/03/19 11:32:35;;;;;;;15.75;13.50;;;29.40;89.10;;;;;;1877195;76;21236;-87
2022/03/19 11:35:11;;;;;;;15.78;13.78;;;29.30;89.20;;;;;;1863454;76;21622;-85
2022/03/19 11:37:44;;;;;;;16.97;14.80;;;29.30;89.30;;;;;;1861684;76;21115;-87
2022/03/19 11:40:17;;;;;;;18.45;14.28;;;29.30;89.60;;;;;;1872956;74;21183;-85
2022/03/19 11:42:57;;;;;;;20.68;15.55;;;29.30;89.60;;;;;;1877575;76;21152;-86
2022/03/19 11:45:30;;;;;;;17.62;15.15;;;29.30;89.80;;;;;;1886131;76;21061;-85
2022/03/19 11:48:01;;;;;;;20.95;16.45;;;29.30;89.70;;;;;;1860066;76;21236;-85
2022/03/19 11:50:34;;;;;;;20.25;16.48;;;29.30;90.00;;;;;;1879529;76;21099;-86
2022/03/19 11:53:07;;;;;;;20.27;16.45;;;29.20;90.10;;;;;;1879897;76;21613;-85
2022/03/19 11:55:39;;;;;;;24.52;17.62;;;29.20;90.00;;;;;;1858524;76;21150;-87
2022/03/19 11:58:12;;;;;;;22.20;19.80;;;29.20;90.20;;;;;;1880413;76;21096;-85
2022/03/19 12:00:45;;;;;;;25.52;19.77;;;29.20;90.70;;;;;;1875658;76;21158;-86
2022/03/19 12:03:24;;;;;;;25.88;19.90;;;29.20;90.40;;;;;;1859699;76;21150;-85
2022/03/19 12:05:51;;;;;;;22.67;18.57;;;29.20;90.50;;;;;;1861033;76;21237;-86
2022/03/19 12:08:24;;;;;;;19.75;17.27;;;29.20;90.40;;;;;;1880929;76;21212;-87
2022/03/19 12:10:59;;;;;;;21.05;17.65;;;29.20;90.40;;;;;;1872346;76;21618;-86
2022/03/19 12:13:32;;;;;;;20.70;16.48;;;29.10;90.40;;;;;;1852233;76;21109;-86
2022/03/19 12:16:08;;;;;;;20.45;17.12;;;29.10;90.10;;;;;;1871372;76;21155;-85
2022/03/19 12:18:42;;;;;;;26.75;16.37;;;29.10;90.50;;;;;;1864067;76;21685;-86
2022/03/19 12:21:15;;;;;;;19.48;17.23;;;29.10;90.50;;;;;;1877793;76;21174;-85
2022/03/19 12:23:49;;;;;;;21.75;17.27;;;29.10;90.50;;;;;;1876465;76;21079;-86
2022/03/19 12:26:22;;;;;;;20.27;16.45;;;29.10;90.60;;;;;;1867579;76;21088;-85
2022/03/19 12:28:56;;;;;;;20.68;17.15;;;29.10;90.50;;;;;;1864189;76;21091;-85
2022/03/19 12:31:29;;;;;;;23.20;16.27;;;29.00;90.40;;;;;;1874683;76;21170;-85
2022/03/19 12:34:01;;;;;;;18.55;16.35;;;29.10;90.40;;;;;;1878886;76;21206;-86
2022/03/19 12:36:32;;;;;;;19.57;15.23;;;29.00;90.40;;;;;;1871102;76;21037;-87
2022/03/19 12:39:05;;;;;;;20.45;16.12;;;29.10;90.50;;;;;;1868037;76;21127;-85
2022/03/19 12:41:36;;;;;;;18.30;15.43;;;29.10;90.40;;;;;;1883403;74;21181;-87
2022/03/19 12:44:11;;;;;;;24.87;16.77;;;29.00;90.40;;;;;;1864954;76;21200;-87
2022/03/19 12:46:48;;;;;;;21.10;17.60;;;29.10;90.40;;;;;;1883755;76;21080;-87
2022/03/19 12:49:18;;;;;;;20.30;17.85;;;29.00;90.40;;;;;;1871872;76;21244;-87
2022/03/19 12:51:50;;;;;;;19.12;16.87;;;29.10;90.40;;;;;;1865568;76;21083;-88
2022/03/19 12:54:28;;;;;;;23.60;17.15;;;29.00;90.40;;;;;;1868922;76;21217;-86
2022/03/19 12:56:59;;;;;;;21.05;16.52;;;29.00;90.40;;;;;;1858738;76;21146;-86
2022/03/19 12:59:31;;;;;;;20.65;16.20;;;29.00;90.40;;;;;;1890256;76;21193;-87
2022/03/19 13:02:03;;;;;;;20.92;16.73;;;29.00;90.50;;;;;;1860611;76;21141;-87
2022/03/19 13:04:34;;;;;;;20.70;17.15;;;29.00;90.60;;;;;;1878323;76;21119;-86
2022/03/19 13:07:06;;;;;;;19.75;17.20;;;29.00;90.70;;;;;;1858713;76;21173;-85
2022/03/19 13:09:39;;;;;;;21.20;17.73;;;29.00;91.10;;;;;;1854737;76;21095;-86
2022/03/19 13:12:12;;;;;;;26.07;18.48;;;29.00;90.80;;;;;;1884281;76;21607;-86